sensor_id;sensor_type;location;lat;lon;timestamp;temperature;humidity
22319;DHT22;11327;52.334;9.506;2023-07-22T00:02:31;15.00;99.90
22319;DHT22;11327;52.334;9.506;2023-07-22T00:06:09;15.00;99.90
22319;DHT22;11327;52.334;9.506;2023-07-22T00:09:32;15.10;99.90
22319;DHT22;11327;52.334;9.506;2023-07-22T00:12:54;15.00;99.90
22319;DHT22;11327;52.334;9.506;2023-07-22T00:16:14;15.00;99.90
22319;DHT22;11327;52.334;9.506;2023-07-22T00:19:35;15.00;99.90
22319;DHT22;11327;52.334;9.506;2023-07-22T00:22:56;15.00;99.90
22319;DHT22;11327;52.334;9.506;2023-07-22T00:26:16;14.90;99.90
22319;DHT22;11327;52.334;9.506;2023-07-22T00:29:37;14.90;99.90
22319;DHT22;11327;52.334;9.506;2023-07-22T00:32:58;14.80;99.90
22319;DHT22;11327;52.334;9.506;2023-07-22T00:36:19;14.90;99.90
22319;DHT22;11327;52.334;9.506;2023-07-22T00:39:40;14.80;99.90
22319;DHT22;11327;52.334;9.506;2023-07-22T00:43:00;14.80;99.90
22319;DHT22;11327;52.334;9.506;2023-07-22T00:46:21;14.80;99.90
22319;DHT22;11327;52.334;9.506;2023-07-22T00:49:42;14.80;99.90
22319;DHT22;11327;52.334;9.506;2023-07-22T00:53:03;14.80;99.90
22319;DHT22;11327;52.334;9.506;2023-07-22T00:56:24;14.80;99.90
22319;DHT22;11327;52.334;9.506;2023-07-22T00:59:45;14.80;99.90
22319;DHT22;11327;52.334;9.506;2023-07-22T01:03:06;14.80;99.90
22319;DHT22;11327;52.334;9.506;2023-07-22T01:06:28;14.80;99.90
22319;DHT22;11327;52.334;9.506;2023-07-22T01:09:55;14.70;99.90
22319;DHT22;11327;52.334;9.506;2023-07-22T01:13:15;14.70;99.90
22319;DHT22;11327;52.334;9.506;2023-07-22T01:16:36;14.70;99.90
22319;DHT22;11327;52.334;9.506;2023-07-22T01:19:57;14.70;99.90
22319;DHT22;11327;52.334;9.506;2023-07-22T01:23:18;14.60;99.90
22319;DHT22;11327;52.334;9.506;2023-07-22T01:26:39;14.60;99.90
22319;DHT22;11327;52.334;9.506;2023-07-22T01:29:59;14.60;99.90
22319;DHT22;11327;52.334;9.506;2023-07-22T01:33:22;14.50;99.90
22319;DHT22;11327;52.334;9.506;2023-07-22T01:36:44;14.50;99.90
22319;DHT22;11327;52.334;9.506;2023-07-22T01:40:05;14.50;99.90
22319;DHT22;11327;52.334;9.506;2023-07-22T01:43:28;14.50;99.90
22319;DHT22;11327;52.334;9.506;2023-07-22T01:46:49;14.50;99.90
22319;DHT22;11327;52.334;9.506;2023-07-22T01:50:10;14.40;99.90
22319;DHT22;11327;52.334;9.506;2023-07-22T01:53:30;14.40;99.90
22319;DHT22;11327;52.334;9.506;2023-07-22T01:56:52;14.40;99.90
22319;DHT22;11327;52.334;9.506;2023-07-22T02:00:13;14.40;99.90
22319;DHT22;11327;52.334;9.506;2023-07-22T02:03:35;14.40;99.90
22319;DHT22;11327;52.334;9.506;2023-07-22T02:06:56;14.40;99.90
22319;DHT22;11327;52.334;9.506;2023-07-22T02:10:17;14.30;99.90
22319;DHT22;11327;52.334;9.506;2023-07-22T02:13:37;14.30;99.90
22319;DHT22;11327;52.334;9.506;2023-07-22T02:16:58;14.30;99.90
22319;DHT22;11327;52.334;9.506;2023-07-22T02:20:19;14.30;99.90
22319;DHT22;11327;52.334;9.506;2023-07-22T02:23:40;14.30;99.90
22319;DHT22;11327;52.334;9.506;2023-07-22T02:27:00;14.30;99.90
22319;DHT22;11327;52.334;9.506;2023-07-22T02:30:21;14.30;99.90
22319;DHT22;11327;52.334;9.506;2023-07-22T02:33:42;14.30;99.90
22319;DHT22;11327;52.334;9.506;2023-07-22T02:37:04;14.30;99.90
22319;DHT22;11327;52.334;9.506;2023-07-22T02:40:25;14.20;99.90
22319;DHT22;11327;52.334;9.506;2023-07-22T02:43:46;14.30;99.90
22319;DHT22;11327;52.334;9.506;2023-07-22T02:47:06;14.20;99.90
22319;DHT22;11327;52.334;9.506;2023-07-22T02:50:27;14.20;99.90
22319;DHT22;11327;52.334;9.506;2023-07-22T02:53:48;14.20;99.90
22319;DHT22;11327;52.334;9.506;2023-07-22T02:57:08;14.30;99.90
22319;DHT22;11327;52.334;9.506;2023-07-22T03:00:29;14.20;99.90
22319;DHT22;11327;52.334;9.506;2023-07-22T03:03:50;14.20;99.90
22319;DHT22;11327;52.334;9.506;2023-07-22T03:07:11;14.10;99.90
22319;DHT22;11327;52.334;9.506;2023-07-22T03:10:32;14.20;99.90
22319;DHT22;11327;52.334;9.506;2023-07-22T03:13:53;14.20;99.90
22319;DHT22;11327;52.334;9.506;2023-07-22T03:17:14;14.20;99.90
22319;DHT22;11327;52.334;9.506;2023-07-22T03:20:37;14.10;99.90
22319;DHT22;11327;52.334;9.506;2023-07-22T03:23:58;14.10;99.90
22319;DHT22;11327;52.334;9.506;2023-07-22T03:27:19;14.10;99.90
22319;DHT22;11327;52.334;9.506;2023-07-22T03:30:40;14.10;99.90
22319;DHT22;11327;52.334;9.506;2023-07-22T03:34:00;13.90;99.90
22319;DHT22;11327;52.334;9.506;2023-07-22T03:37:21;14.00;99.90
22319;DHT22;11327;52.334;9.506;2023-07-22T03:40:42;14.00;99.90
22319;DHT22;11327;52.334;9.506;2023-07-22T03:44:03;13.90;99.90
22319;DHT22;11327;52.334;9.506;2023-07-22T03:47:23;13.90;99.90
22319;DHT22;11327;52.334;9.506;2023-07-22T03:50:44;13.90;99.90
22319;DHT22;11327;52.334;9.506;2023-07-22T03:54:05;13.90;99.90
22319;DHT22;11327;52.334;9.506;2023-07-22T03:57:26;13.90;99.90
22319;DHT22;11327;52.334;9.506;2023-07-22T04:00:48;14.00;99.90
22319;DHT22;11327;52.334;9.506;2023-07-22T04:04:09;13.90;99.90
22319;DHT22;11327;52.334;9.506;2023-07-22T04:07:30;13.90;99.90
22319;DHT22;11327;52.334;9.506;2023-07-22T04:10:52;13.90;99.90
22319;DHT22;11327;52.334;9.506;2023-07-22T04:14:13;13.90;99.90
22319;DHT22;11327;52.334;9.506;2023-07-22T04:17:34;14.00;99.90
22319;DHT22;11327;52.334;9.506;2023-07-22T04:20:56;14.00;99.90
22319;DHT22;11327;52.334;9.506;2023-07-22T04:24:17;14.00;99.90
22319;DHT22;11327;52.334;9.506;2023-07-22T04:27:38;14.00;99.90
22319;DHT22;11327;52.334;9.506;2023-07-22T04:30:59;13.90;99.90
22319;DHT22;11327;52.334;9.506;2023-07-22T04:34:20;14.00;99.90
22319;DHT22;11327;52.334;9.506;2023-07-22T04:37:41;14.00;99.90
22319;DHT22;11327;52.334;9.506;2023-07-22T04:41:03;14.00;99.90
22319;DHT22;11327;52.334;9.506;2023-07-22T04:44:24;14.10;99.90
22319;DHT22;11327;52.334;9.506;2023-07-22T04:47:44;14.20;99.90
22319;DHT22;11327;52.334;9.506;2023-07-22T04:51:07;14.10;99.90
22319;DHT22;11327;52.334;9.506;2023-07-22T04:54:28;14.10;99.90
22319;DHT22;11327;52.334;9.506;2023-07-22T04:57:49;14.20;99.90
22319;DHT22;11327;52.334;9.506;2023-07-22T05:01:11;14.20;99.90
22319;DHT22;11327;52.334;9.506;2023-07-22T05:04:32;14.20;99.90
22319;DHT22;11327;52.334;9.506;2023-07-22T05:07:53;14.20;99.90
22319;DHT22;11327;52.334;9.506;2023-07-22T05:11:14;14.30;99.90
22319;DHT22;11327;52.334;9.506;2023-07-22T05:14:34;14.30;99.90
22319;DHT22;11327;52.334;9.506;2023-07-22T05:17:55;14.30;99.90
22319;DHT22;11327;52.334;9.506;2023-07-22T05:21:16;14.30;99.90
22319;DHT22;11327;52.334;9.506;2023-07-22T05:24:36;14.40;99.90
22319;DHT22;11327;52.334;9.506;2023-07-22T05:27:57;14.40;99.90
22319;DHT22;11327;52.334;9.506;2023-07-22T05:31:18;14.50;99.90
22319;DHT22;11327;52.334;9.506;2023-07-22T05:34:39;14.50;99.90
22319;DHT22;11327;52.334;9.506;2023-07-22T05:37:59;14.60;99.90
22319;DHT22;11327;52.334;9.506;2023-07-22T05:41:22;14.70;99.90
22319;DHT22;11327;52.334;9.506;2023-07-22T05:44:43;14.80;99.90
22319;DHT22;11327;52.334;9.506;2023-07-22T05:48:04;14.90;99.90
22319;DHT22;11327;52.334;9.506;2023-07-22T05:51:25;14.90;99.90
22319;DHT22;11327;52.334;9.506;2023-07-22T05:54:46;15.10;99.90
22319;DHT22;11327;52.334;9.506;2023-07-22T05:58:14;15.20;99.90
22319;DHT22;11327;52.334;9.506;2023-07-22T06:01:31;15.20;99.90
22319;DHT22;11327;52.334;9.506;2023-07-22T06:04:52;15.40;99.90
22319;DHT22;11327;52.334;9.506;2023-07-22T06:08:13;15.40;99.90
22319;DHT22;11327;52.334;9.506;2023-07-22T06:11:33;15.50;99.90
22319;DHT22;11327;52.334;9.506;2023-07-22T06:14:54;15.60;99.90
22319;DHT22;11327;52.334;9.506;2023-07-22T06:18:15;15.60;99.90
22319;DHT22;11327;52.334;9.506;2023-07-22T06:21:35;15.60;99.90
22319;DHT22;11327;52.334;9.506;2023-07-22T06:24:56;15.70;99.90
22319;DHT22;11327;52.334;9.506;2023-07-22T06:28:17;15.80;99.90
22319;DHT22;11327;52.334;9.506;2023-07-22T06:31:38;15.80;99.90
22319;DHT22;11327;52.334;9.506;2023-07-22T06:34:58;15.90;99.90
22319;DHT22;11327;52.334;9.506;2023-07-22T06:38:19;16.00;99.90
22319;DHT22;11327;52.334;9.506;2023-07-22T06:41:40;16.00;99.90
22319;DHT22;11327;52.334;9.506;2023-07-22T06:45:00;16.10;99.90
22319;DHT22;11327;52.334;9.506;2023-07-22T06:48:21;16.20;99.90
22319;DHT22;11327;52.334;9.506;2023-07-22T06:51:42;16.40;99.90
22319;DHT22;11327;52.334;9.506;2023-07-22T06:55:03;16.40;99.90
22319;DHT22;11327;52.334;9.506;2023-07-22T06:58:25;16.50;99.90
22319;DHT22;11327;52.334;9.506;2023-07-22T07:01:47;16.50;99.90
22319;DHT22;11327;52.334;9.506;2023-07-22T07:05:08;16.50;99.90
22319;DHT22;11327;52.334;9.506;2023-07-22T07:08:29;16.60;99.90
22319;DHT22;11327;52.334;9.506;2023-07-22T07:11:51;16.70;99.90
22319;DHT22;11327;52.334;9.506;2023-07-22T07:15:12;16.70;99.90
22319;DHT22;11327;52.334;9.506;2023-07-22T07:18:33;16.90;99.90
22319;DHT22;11327;52.334;9.506;2023-07-22T07:21:54;17.10;99.90
22319;DHT22;11327;52.334;9.506;2023-07-22T07:25:14;17.20;99.90
22319;DHT22;11327;52.334;9.506;2023-07-22T07:28:36;17.50;99.90
22319;DHT22;11327;52.334;9.506;2023-07-22T07:31:56;17.60;99.90
22319;DHT22;11327;52.334;9.506;2023-07-22T07:35:17;17.70;99.90
22319;DHT22;11327;52.334;9.506;2023-07-22T07:38:38;17.80;99.90
22319;DHT22;11327;52.334;9.506;2023-07-22T07:41:59;18.00;99.90
22319;DHT22;11327;52.334;9.506;2023-07-22T07:45:19;18.20;99.90
22319;DHT22;11327;52.334;9.506;2023-07-22T07:48:40;18.30;99.90
22319;DHT22;11327;52.334;9.506;2023-07-22T07:52:01;18.40;99.90
22319;DHT22;11327;52.334;9.506;2023-07-22T07:55:22;18.40;99.90
22319;DHT22;11327;52.334;9.506;2023-07-22T07:58:43;18.30;99.90
22319;DHT22;11327;52.334;9.506;2023-07-22T08:02:05;18.30;99.90
22319;DHT22;11327;52.334;9.506;2023-07-22T08:05:28;18.10;99.90
22319;DHT22;11327;52.334;9.506;2023-07-22T08:08:49;18.10;99.90
22319;DHT22;11327;52.334;9.506;2023-07-22T08:12:09;18.10;99.90
22319;DHT22;11327;52.334;9.506;2023-07-22T08:15:30;18.20;99.90
22319;DHT22;11327;52.334;9.506;2023-07-22T08:18:51;18.20;99.90
22319;DHT22;11327;52.334;9.506;2023-07-22T08:22:12;18.20;99.90
22319;DHT22;11327;52.334;9.506;2023-07-22T08:25:32;18.10;99.90
22319;DHT22;11327;52.334;9.506;2023-07-22T08:28:53;18.20;99.90
22319;DHT22;11327;52.334;9.506;2023-07-22T08:32:15;18.40;99.90
22319;DHT22;11327;52.334;9.506;2023-07-22T08:35:36;18.50;99.90
22319;DHT22;11327;52.334;9.506;2023-07-22T08:38:57;18.70;99.90
22319;DHT22;11327;52.334;9.506;2023-07-22T08:42:18;18.80;99.90
22319;DHT22;11327;52.334;9.506;2023-07-22T08:45:42;18.80;99.90
22319;DHT22;11327;52.334;9.506;2023-07-22T08:49:04;18.80;99.90
22319;DHT22;11327;52.334;9.506;2023-07-22T08:52:26;18.80;99.90
22319;DHT22;11327;52.334;9.506;2023-07-22T08:55:47;19.00;99.90
22319;DHT22;11327;52.334;9.506;2023-07-22T08:59:08;18.80;99.90
22319;DHT22;11327;52.334;9.506;2023-07-22T09:02:32;18.80;99.90
22319;DHT22;11327;52.334;9.506;2023-07-22T09:05:54;18.70;99.90
22319;DHT22;11327;52.334;9.506;2023-07-22T09:09:16;18.90;99.90
22319;DHT22;11327;52.334;9.506;2023-07-22T09:12:37;19.10;99.90
22319;DHT22;11327;52.334;9.506;2023-07-22T09:16:00;18.90;99.90
22319;DHT22;11327;52.334;9.506;2023-07-22T09:19:21;19.00;99.90
22319;DHT22;11327;52.334;9.506;2023-07-22T09:22:45;19.00;99.90
22319;DHT22;11327;52.334;9.506;2023-07-22T09:26:11;19.10;99.90
22319;DHT22;11327;52.334;9.506;2023-07-22T09:29:33;19.20;99.90
22319;DHT22;11327;52.334;9.506;2023-07-22T09:32:57;19.40;99.90
22319;DHT22;11327;52.334;9.506;2023-07-22T09:36:18;19.60;99.90
22319;DHT22;11327;52.334;9.506;2023-07-22T09:39:39;19.80;99.90
22319;DHT22;11327;52.334;9.506;2023-07-22T09:43:02;19.80;99.90
22319;DHT22;11327;52.334;9.506;2023-07-22T09:46:30;19.90;99.90
22319;DHT22;11327;52.334;9.506;2023-07-22T09:49:49;20.10;99.90
22319;DHT22;11327;52.334;9.506;2023-07-22T09:53:15;20.10;99.90
22319;DHT22;11327;52.334;9.506;2023-07-22T09:56:44;20.20;99.90
22319;DHT22;11327;52.334;9.506;2023-07-22T10:00:05;20.20;99.90
22319;DHT22;11327;52.334;9.506;2023-07-22T10:03:29;20.40;99.90
22319;DHT22;11327;52.334;9.506;2023-07-22T10:06:51;20.50;99.90
22319;DHT22;11327;52.334;9.506;2023-07-22T10:10:14;20.70;99.90
22319;DHT22;11327;52.334;9.506;2023-07-22T10:13:36;20.80;99.90
22319;DHT22;11327;52.334;9.506;2023-07-22T10:16:59;20.80;99.90
22319;DHT22;11327;52.334;9.506;2023-07-22T10:20:20;20.70;99.90
22319;DHT22;11327;52.334;9.506;2023-07-22T10:23:41;20.60;99.90
22319;DHT22;11327;52.334;9.506;2023-07-22T10:27:02;20.60;99.90
22319;DHT22;11327;52.334;9.506;2023-07-22T10:30:24;20.50;99.90
22319;DHT22;11327;52.334;9.506;2023-07-22T10:33:46;20.50;99.90
22319;DHT22;11327;52.334;9.506;2023-07-22T10:37:09;20.50;99.90
22319;DHT22;11327;52.334;9.506;2023-07-22T10:40:31;20.60;99.90
22319;DHT22;11327;52.334;9.506;2023-07-22T10:43:57;20.70;99.90
22319;DHT22;11327;52.334;9.506;2023-07-22T10:47:34;21.00;99.90
22319;DHT22;11327;52.334;9.506;2023-07-22T10:51:05;21.20;99.90
22319;DHT22;11327;52.334;9.506;2023-07-22T10:54:34;20.90;99.90
22319;DHT22;11327;52.334;9.506;2023-07-22T10:58:03;20.80;99.90
22319;DHT22;11327;52.334;9.506;2023-07-22T11:04:51;20.80;99.90
22319;DHT22;11327;52.334;9.506;2023-07-22T11:08:12;20.80;99.90
22319;DHT22;11327;52.334;9.506;2023-07-22T11:11:40;20.70;99.90
22319;DHT22;11327;52.334;9.506;2023-07-22T11:15:03;20.50;99.90
22319;DHT22;11327;52.334;9.506;2023-07-22T11:18:36;20.30;99.90
22319;DHT22;11327;52.334;9.506;2023-07-22T11:21:57;20.10;99.90
22319;DHT22;11327;52.334;9.506;2023-07-22T11:25:18;20.10;99.90
22319;DHT22;11327;52.334;9.506;2023-07-22T11:28:39;20.20;99.90
22319;DHT22;11327;52.334;9.506;2023-07-22T11:32:02;20.20;99.90
22319;DHT22;11327;52.334;9.506;2023-07-22T11:35:23;20.20;99.90
22319;DHT22;11327;52.334;9.506;2023-07-22T11:38:44;20.10;99.90
22319;DHT22;11327;52.334;9.506;2023-07-22T11:42:05;20.10;99.90
22319;DHT22;11327;52.334;9.506;2023-07-22T11:45:26;20.00;99.90
22319;DHT22;11327;52.334;9.506;2023-07-22T11:48:50;19.90;99.90
22319;DHT22;11327;52.334;9.506;2023-07-22T11:52:16;19.90;99.90
22319;DHT22;11327;52.334;9.506;2023-07-22T11:55:40;19.80;99.90
22319;DHT22;11327;52.334;9.506;2023-07-22T11:59:01;19.80;99.90
22319;DHT22;11327;52.334;9.506;2023-07-22T12:02:27;19.90;99.90
22319;DHT22;11327;52.334;9.506;2023-07-22T12:05:49;19.90;99.90
22319;DHT22;11327;52.334;9.506;2023-07-22T12:09:10;19.90;99.90
22319;DHT22;11327;52.334;9.506;2023-07-22T12:16:02;20.30;99.90
22319;DHT22;11327;52.334;9.506;2023-07-22T12:19:23;20.50;99.90
22319;DHT22;11327;52.334;9.506;2023-07-22T12:22:44;20.60;99.90
22319;DHT22;11327;52.334;9.506;2023-07-22T12:26:05;20.90;99.90
22319;DHT22;11327;52.334;9.506;2023-07-22T12:29:26;20.90;99.90
22319;DHT22;11327;52.334;9.506;2023-07-22T12:32:47;20.80;99.90
22319;DHT22;11327;52.334;9.506;2023-07-22T12:36:08;20.80;99.90
22319;DHT22;11327;52.334;9.506;2023-07-22T12:39:29;20.80;99.90
22319;DHT22;11327;52.334;9.506;2023-07-22T12:42:50;20.80;99.90
22319;DHT22;11327;52.334;9.506;2023-07-22T12:46:10;20.80;99.90
22319;DHT22;11327;52.334;9.506;2023-07-22T12:49:31;21.00;99.90
22319;DHT22;11327;52.334;9.506;2023-07-22T12:52:52;21.20;99.90
22319;DHT22;11327;52.334;9.506;2023-07-22T12:56:12;21.50;99.90
22319;DHT22;11327;52.334;9.506;2023-07-22T12:59:33;21.50;99.90
22319;DHT22;11327;52.334;9.506;2023-07-22T13:02:54;21.70;99.90
22319;DHT22;11327;52.334;9.506;2023-07-22T13:06:16;21.80;99.90
22319;DHT22;11327;52.334;9.506;2023-07-22T13:09:48;21.80;99.90
22319;DHT22;11327;52.334;9.506;2023-07-22T13:13:08;21.90;99.90
22319;DHT22;11327;52.334;9.506;2023-07-22T13:16:28;21.90;99.90
22319;DHT22;11327;52.334;9.506;2023-07-22T13:19:49;21.90;99.90
22319;DHT22;11327;52.334;9.506;2023-07-22T13:23:10;21.70;99.90
22319;DHT22;11327;52.334;9.506;2023-07-22T13:26:30;21.60;99.90
22319;DHT22;11327;52.334;9.506;2023-07-22T13:29:51;21.50;99.90
22319;DHT22;11327;52.334;9.506;2023-07-22T13:33:12;21.60;99.90
22319;DHT22;11327;52.334;9.506;2023-07-22T13:36:33;21.80;99.90
22319;DHT22;11327;52.334;9.506;2023-07-22T13:39:53;21.90;99.90
22319;DHT22;11327;52.334;9.506;2023-07-22T13:43:14;22.00;99.90
22319;DHT22;11327;52.334;9.506;2023-07-22T13:46:35;21.90;99.90
22319;DHT22;11327;52.334;9.506;2023-07-22T13:49:55;21.90;99.90
22319;DHT22;11327;52.334;9.506;2023-07-22T13:53:16;21.90;99.90
22319;DHT22;11327;52.334;9.506;2023-07-22T13:56:37;22.00;99.90
22319;DHT22;11327;52.334;9.506;2023-07-22T13:59:57;22.00;99.90
22319;DHT22;11327;52.334;9.506;2023-07-22T14:03:18;22.20;99.90
22319;DHT22;11327;52.334;9.506;2023-07-22T14:06:39;22.50;99.90
22319;DHT22;11327;52.334;9.506;2023-07-22T14:10:00;22.60;99.90
22319;DHT22;11327;52.334;9.506;2023-07-22T14:13:20;22.70;99.90
22319;DHT22;11327;52.334;9.506;2023-07-22T14:16:41;22.70;99.90
22319;DHT22;11327;52.334;9.506;2023-07-22T14:20:02;22.70;99.90
22319;DHT22;11327;52.334;9.506;2023-07-22T14:23:24;22.50;99.90
22319;DHT22;11327;52.334;9.506;2023-07-22T14:26:45;22.40;99.90
22319;DHT22;11327;52.334;9.506;2023-07-22T14:30:08;22.40;99.90
22319;DHT22;11327;52.334;9.506;2023-07-22T14:33:29;22.40;99.90
22319;DHT22;11327;52.334;9.506;2023-07-22T14:36:50;22.20;99.90
22319;DHT22;11327;52.334;9.506;2023-07-22T14:40:11;22.20;99.90
22319;DHT22;11327;52.334;9.506;2023-07-22T14:43:32;22.20;99.90
22319;DHT22;11327;52.334;9.506;2023-07-22T14:46:53;22.20;99.90
22319;DHT22;11327;52.334;9.506;2023-07-22T14:50:14;22.20;99.90
22319;DHT22;11327;52.334;9.506;2023-07-22T14:53:34;22.20;99.90
22319;DHT22;11327;52.334;9.506;2023-07-22T14:56:55;22.20;99.90
22319;DHT22;11327;52.334;9.506;2023-07-22T15:00:16;22.30;99.90
22319;DHT22;11327;52.334;9.506;2023-07-22T15:03:38;22.30;99.90
22319;DHT22;11327;52.334;9.506;2023-07-22T15:06:59;22.30;99.90
22319;DHT22;11327;52.334;9.506;2023-07-22T15:10:20;22.50;99.90
22319;DHT22;11327;52.334;9.506;2023-07-22T15:13:40;22.70;99.90
22319;DHT22;11327;52.334;9.506;2023-07-22T15:17:01;22.80;99.90
22319;DHT22;11327;52.334;9.506;2023-07-22T15:20:22;22.80;99.90
22319;DHT22;11327;52.334;9.506;2023-07-22T15:23:42;22.80;99.90
22319;DHT22;11327;52.334;9.506;2023-07-22T15:27:03;22.60;99.90
22319;DHT22;11327;52.334;9.506;2023-07-22T15:30:24;22.50;99.90
22319;DHT22;11327;52.334;9.506;2023-07-22T15:33:45;22.40;99.90
22319;DHT22;11327;52.334;9.506;2023-07-22T15:37:06;22.30;99.90
22319;DHT22;11327;52.334;9.506;2023-07-22T15:40:27;22.20;99.90
22319;DHT22;11327;52.334;9.506;2023-07-22T15:43:47;22.10;99.90
22319;DHT22;11327;52.334;9.506;2023-07-22T15:47:08;22.00;99.90
22319;DHT22;11327;52.334;9.506;2023-07-22T15:50:29;22.00;99.90
22319;DHT22;11327;52.334;9.506;2023-07-22T15:53:50;22.00;99.90
22319;DHT22;11327;52.334;9.506;2023-07-22T15:57:10;22.00;99.90
22319;DHT22;11327;52.334;9.506;2023-07-22T16:00:31;22.00;99.90
22319;DHT22;11327;52.334;9.506;2023-07-22T16:03:52;21.90;99.90
22319;DHT22;11327;52.334;9.506;2023-07-22T16:07:13;21.80;99.90
22319;DHT22;11327;52.334;9.506;2023-07-22T16:10:33;21.80;99.90
22319;DHT22;11327;52.334;9.506;2023-07-22T16:13:54;21.80;99.90
22319;DHT22;11327;52.334;9.506;2023-07-22T16:17:15;21.70;99.90
22319;DHT22;11327;52.334;9.506;2023-07-22T16:20:35;21.70;99.90
22319;DHT22;11327;52.334;9.506;2023-07-22T16:23:56;21.70;99.90
22319;DHT22;11327;52.334;9.506;2023-07-22T16:27:17;21.70;99.90
22319;DHT22;11327;52.334;9.506;2023-07-22T16:30:37;21.60;99.90
22319;DHT22;11327;52.334;9.506;2023-07-22T16:33:58;21.60;99.90
22319;DHT22;11327;52.334;9.506;2023-07-22T16:37:22;21.60;99.90
22319;DHT22;11327;52.334;9.506;2023-07-22T16:40:43;21.60;99.90
22319;DHT22;11327;52.334;9.506;2023-07-22T16:44:03;21.60;99.90
22319;DHT22;11327;52.334;9.506;2023-07-22T16:47:25;21.60;99.90
22319;DHT22;11327;52.334;9.506;2023-07-22T16:50:46;21.50;99.90
22319;DHT22;11327;52.334;9.506;2023-07-22T16:54:06;21.30;99.90
22319;DHT22;11327;52.334;9.506;2023-07-22T16:57:27;21.60;99.90
22319;DHT22;11327;52.334;9.506;2023-07-22T17:00:48;21.60;99.90
22319;DHT22;11327;52.334;9.506;2023-07-22T17:04:09;21.60;99.90
22319;DHT22;11327;52.334;9.506;2023-07-22T17:07:31;21.60;99.90
22319;DHT22;11327;52.334;9.506;2023-07-22T17:10:52;21.70;99.90
22319;DHT22;11327;52.334;9.506;2023-07-22T17:14:13;21.60;99.90
22319;DHT22;11327;52.334;9.506;2023-07-22T17:17:34;21.50;99.90
22319;DHT22;11327;52.334;9.506;2023-07-22T17:20:54;21.40;99.90
22319;DHT22;11327;52.334;9.506;2023-07-22T17:24:15;21.20;99.90
22319;DHT22;11327;52.334;9.506;2023-07-22T17:27:36;21.10;99.90
22319;DHT22;11327;52.334;9.506;2023-07-22T17:31:00;20.90;99.90
22319;DHT22;11327;52.334;9.506;2023-07-22T17:34:20;20.80;99.90
22319;DHT22;11327;52.334;9.506;2023-07-22T17:37:41;20.70;99.90
22319;DHT22;11327;52.334;9.506;2023-07-22T17:41:02;20.60;99.90
22319;DHT22;11327;52.334;9.506;2023-07-22T17:44:23;20.60;99.90
22319;DHT22;11327;52.334;9.506;2023-07-22T17:47:43;20.50;99.90
22319;DHT22;11327;52.334;9.506;2023-07-22T17:51:04;20.40;99.90
22319;DHT22;11327;52.334;9.506;2023-07-22T17:54:25;20.40;99.90
22319;DHT22;11327;52.334;9.506;2023-07-22T17:57:45;20.30;99.90
22319;DHT22;11327;52.334;9.506;2023-07-22T18:01:06;20.20;99.90
22319;DHT22;11327;52.334;9.506;2023-07-22T18:04:27;20.20;99.90
22319;DHT22;11327;52.334;9.506;2023-07-22T18:07:47;20.20;99.90
22319;DHT22;11327;52.334;9.506;2023-07-22T18:11:08;20.00;99.90
22319;DHT22;11327;52.334;9.506;2023-07-22T18:14:29;20.00;99.90
22319;DHT22;11327;52.334;9.506;2023-07-22T18:17:49;19.90;99.90
22319;DHT22;11327;52.334;9.506;2023-07-22T18:21:10;19.80;99.90
22319;DHT22;11327;52.334;9.506;2023-07-22T18:24:31;19.80;99.90
22319;DHT22;11327;52.334;9.506;2023-07-22T18:27:52;19.70;99.90
22319;DHT22;11327;52.334;9.506;2023-07-22T18:31:13;19.70;99.90
22319;DHT22;11327;52.334;9.506;2023-07-22T18:34:34;19.70;99.90
22319;DHT22;11327;52.334;9.506;2023-07-22T18:37:55;19.60;99.90
22319;DHT22;11327;52.334;9.506;2023-07-22T18:41:16;19.70;99.90
22319;DHT22;11327;52.334;9.506;2023-07-22T18:44:36;19.50;99.90
22319;DHT22;11327;52.334;9.506;2023-07-22T18:47:57;19.50;99.90
22319;DHT22;11327;52.334;9.506;2023-07-22T18:51:18;19.40;99.90
22319;DHT22;11327;52.334;9.506;2023-07-22T18:54:39;19.30;99.90
22319;DHT22;11327;52.334;9.506;2023-07-22T18:58:01;19.30;99.90
22319;DHT22;11327;52.334;9.506;2023-07-22T19:01:22;19.20;99.90
22319;DHT22;11327;52.334;9.506;2023-07-22T19:04:43;19.20;99.90
22319;DHT22;11327;52.334;9.506;2023-07-22T19:08:03;19.20;99.90
22319;DHT22;11327;52.334;9.506;2023-07-22T19:11:24;19.10;99.90
22319;DHT22;11327;52.334;9.506;2023-07-22T19:14:45;19.00;99.90
22319;DHT22;11327;52.334;9.506;2023-07-22T19:18:06;18.80;99.90
22319;DHT22;11327;52.334;9.506;2023-07-22T19:21:28;18.90;99.90
22319;DHT22;11327;52.334;9.506;2023-07-22T19:24:49;18.80;99.90
22319;DHT22;11327;52.334;9.506;2023-07-22T19:28:09;18.70;99.90
22319;DHT22;11327;52.334;9.506;2023-07-22T19:31:30;18.60;99.90
22319;DHT22;11327;52.334;9.506;2023-07-22T19:34:51;18.60;99.90
22319;DHT22;11327;52.334;9.506;2023-07-22T19:38:11;18.60;99.90
22319;DHT22;11327;52.334;9.506;2023-07-22T19:41:32;18.50;99.90
22319;DHT22;11327;52.334;9.506;2023-07-22T19:44:53;18.30;99.90
22319;DHT22;11327;52.334;9.506;2023-07-22T19:48:13;18.30;99.90
22319;DHT22;11327;52.334;9.506;2023-07-22T19:51:34;18.30;99.90
22319;DHT22;11327;52.334;9.506;2023-07-22T19:54:55;18.20;99.90
22319;DHT22;11327;52.334;9.506;2023-07-22T19:58:16;18.20;99.90
22319;DHT22;11327;52.334;9.506;2023-07-22T20:01:41;18.20;99.90
22319;DHT22;11327;52.334;9.506;2023-07-22T20:05:02;18.10;99.90
22319;DHT22;11327;52.334;9.506;2023-07-22T20:08:23;18.20;99.90
22319;DHT22;11327;52.334;9.506;2023-07-22T20:11:44;18.20;99.90
22319;DHT22;11327;52.334;9.506;2023-07-22T20:15:05;18.00;99.90
22319;DHT22;11327;52.334;9.506;2023-07-22T20:18:26;18.10;99.90
22319;DHT22;11327;52.334;9.506;2023-07-22T20:21:46;18.10;99.90
22319;DHT22;11327;52.334;9.506;2023-07-22T20:25:08;18.10;99.90
22319;DHT22;11327;52.334;9.506;2023-07-22T20:28:29;18.10;99.90
22319;DHT22;11327;52.334;9.506;2023-07-22T20:31:50;18.10;99.90
22319;DHT22;11327;52.334;9.506;2023-07-22T20:35:10;18.00;99.90
22319;DHT22;11327;52.334;9.506;2023-07-22T20:38:33;18.00;99.90
22319;DHT22;11327;52.334;9.506;2023-07-22T20:41:53;17.90;99.90
22319;DHT22;11327;52.334;9.506;2023-07-22T20:45:14;18.00;99.90
22319;DHT22;11327;52.334;9.506;2023-07-22T20:48:35;18.00;99.90
22319;DHT22;11327;52.334;9.506;2023-07-22T20:51:55;18.00;99.90
22319;DHT22;11327;52.334;9.506;2023-07-22T20:55:16;17.90;99.90
22319;DHT22;11327;52.334;9.506;2023-07-22T20:58:37;17.90;99.90
22319;DHT22;11327;52.334;9.506;2023-07-22T21:01:58;17.90;99.90
22319;DHT22;11327;52.334;9.506;2023-07-22T21:05:18;17.90;99.90
22319;DHT22;11327;52.334;9.506;2023-07-22T21:08:39;17.80;99.90
22319;DHT22;11327;52.334;9.506;2023-07-22T21:12:00;17.80;99.90
22319;DHT22;11327;52.334;9.506;2023-07-22T21:15:21;17.80;99.90
22319;DHT22;11327;52.334;9.506;2023-07-22T21:18:42;17.70;99.90